createdAt,value
2022-07-28T00:00:48.814Z,41.50
2022-07-28T00:03:15.569Z,40.90
2022-07-28T00:05:42.398Z,40.80
2022-07-28T00:08:10.399Z,41.00
2022-07-28T00:10:37.103Z,41.10
2022-07-28T00:13:03.929Z,41.10
2022-07-28T00:15:34.869Z,41.20
2022-07-28T00:18:01.826Z,41.20
2022-07-28T00:20:30.644Z,41.80
2022-07-28T00:22:57.408Z,41.20
2022-07-28T00:25:24.563Z,41.30
2022-07-28T00:27:51.282Z,41.40
2022-07-28T00:30:18.027Z,41.40
2022-07-28T00:32:44.952Z,41.60
2022-07-28T00:35:12.481Z,41.70
2022-07-28T00:37:41.712Z,41.50
2022-07-28T00:40:08.934Z,41.50
2022-07-28T00:42:35.701Z,41.70
2022-07-28T00:45:02.484Z,42.20
2022-07-28T00:47:33.650Z,41.90
2022-07-28T00:50:04.536Z,41.60
2022-07-28T00:52:31.301Z,41.10
2022-07-28T00:54:58.138Z,40.80
2022-07-28T00:57:24.832Z,40.80
2022-07-28T00:59:51.540Z,40.80
2022-07-28T01:02:19.108Z,41.00
2022-07-28T01:04:46.040Z,41.00
2022-07-28T01:07:15.853Z,41.00
2022-07-28T01:10:01.390Z,41.10
2022-07-28T01:12:38.203Z,41.10
2022-07-28T01:15:14.751Z,41.70
2022-07-28T01:17:45.430Z,41.10
2022-07-28T01:20:12.162Z,41.20
2022-07-28T01:22:40.633Z,41.20
2022-07-28T01:25:13.364Z,41.20
2022-07-28T01:27:43.194Z,41.30
2022-07-28T01:30:28.810Z,41.40
2022-07-28T01:33:00.215Z,41.30
2022-07-28T01:35:33.421Z,42.00
2022-07-28T01:38:01.731Z,41.90
2022-07-28T01:40:29.892Z,41.50
2022-07-28T01:42:57.117Z,41.20
2022-07-28T01:45:23.855Z,40.50
2022-07-28T01:47:50.575Z,40.70
2022-07-28T01:50:18.762Z,40.70
2022-07-28T01:52:46.185Z,40.70
2022-07-28T01:55:13.211Z,40.80
2022-07-28T01:57:39.933Z,40.90
2022-07-28T02:00:07.427Z,41.00
2022-07-28T02:02:34.131Z,41.00
2022-07-28T02:05:01.049Z,41.00
2022-07-28T02:07:27.864Z,41.00
2022-07-28T02:09:54.940Z,41.10
2022-07-28T02:12:21.645Z,41.80
2022-07-28T02:14:48.972Z,41.20
2022-07-28T02:17:16.610Z,41.20
2022-07-28T02:19:43.462Z,41.20
2022-07-28T02:22:10.145Z,41.30
2022-07-28T02:24:36.867Z,42.00
2022-07-28T02:27:22.308Z,42.00
2022-07-28T02:29:51.293Z,41.70
2022-07-28T02:32:27.449Z,41.40
2022-07-28T02:34:58.910Z,40.90
2022-07-28T02:37:25.609Z,40.60
2022-07-28T02:39:55.294Z,40.50
2022-07-28T02:42:28.822Z,40.60
2022-07-28T02:44:57.317Z,40.70
2022-07-28T02:47:25.454Z,40.70
2022-07-28T02:49:52.231Z,40.80
2022-07-28T02:52:19.287Z,40.90
2022-07-28T02:54:45.988Z,40.90
2022-07-28T02:57:12.673Z,40.90
2022-07-28T02:59:39.425Z,40.90
2022-07-28T03:02:06.119Z,41.00
2022-07-28T03:04:51.496Z,41.00
2022-07-28T03:07:18.249Z,41.10
2022-07-28T03:09:45.814Z,41.20
2022-07-28T03:12:12.682Z,41.30
2022-07-28T03:14:39.397Z,41.30
2022-07-28T03:17:06.278Z,41.30
2022-07-28T03:19:33.050Z,41.20
2022-07-28T03:21:59.949Z,41.60
2022-07-28T03:24:35.527Z,42.10
2022-07-28T03:27:21.032Z,41.80
2022-07-28T03:29:53.096Z,41.40
2022-07-28T03:32:20.501Z,40.90
2022-07-28T03:34:47.409Z,39.50
2022-07-28T03:37:14.825Z,40.20
2022-07-28T03:39:46.959Z,41.40
2022-07-28T03:42:18.199Z,42.60
2022-07-28T03:44:47.991Z,43.40
2022-07-28T03:47:15.194Z,44.00
2022-07-28T03:49:41.998Z,44.70
2022-07-28T03:52:08.753Z,45.40
2022-07-28T03:54:35.492Z,46.10
2022-07-28T03:57:02.224Z,46.80
2022-07-28T03:59:28.980Z,47.00
2022-07-28T04:01:56.489Z,47.30
2022-07-28T04:04:23.508Z,48.30
2022-07-28T04:06:50.248Z,47.70
2022-07-28T04:09:17.872Z,47.50
2022-07-28T04:11:44.632Z,47.50
2022-07-28T04:14:16.492Z,47.40
2022-07-28T04:16:44.165Z,47.40
2022-07-28T04:19:10.894Z,47.40
2022-07-28T04:21:37.577Z,47.40
2022-07-28T04:24:04.533Z,47.50
2022-07-28T04:26:31.427Z,47.70
2022-07-28T04:28:58.118Z,47.80
2022-07-28T04:31:24.940Z,47.90
2022-07-28T04:33:52.239Z,47.90
2022-07-28T04:36:18.955Z,48.10
2022-07-28T04:38:47.627Z,47.90
2022-07-28T04:41:14.470Z,47.90
2022-07-28T04:43:41.292Z,47.90
2022-07-28T04:46:09.918Z,48.00
2022-07-28T04:48:39.982Z,48.20
2022-07-28T04:51:06.804Z,48.00
2022-07-28T04:53:33.697Z,48.10
2022-07-28T04:56:03.601Z,48.70
2022-07-28T04:58:30.939Z,47.90
2022-07-28T05:00:57.919Z,47.70
2022-07-28T05:03:24.668Z,47.90
2022-07-28T05:05:54.443Z,48.00
2022-07-28T05:08:22.174Z,48.30
2022-07-28T05:10:52.617Z,48.10
2022-07-28T05:13:19.309Z,48.00
2022-07-28T05:15:46.278Z,48.20
2022-07-28T05:18:12.951Z,47.50
2022-07-28T05:20:39.636Z,46.90
2022-07-28T05:23:06.404Z,48.50
2022-07-28T05:25:33.095Z,47.10
2022-07-28T05:27:59.819Z,46.40
2022-07-28T05:30:26.556Z,46.20
2022-07-28T05:32:53.980Z,45.90
2022-07-28T05:35:20.929Z,45.60
2022-07-28T05:37:47.689Z,45.50
2022-07-28T05:40:14.896Z,45.50
2022-07-28T05:42:44.908Z,45.20
2022-07-28T05:45:17.002Z,45.40
2022-07-28T05:47:46.235Z,45.20
2022-07-28T05:50:13.740Z,45.30
2022-07-28T05:52:40.550Z,45.20
2022-07-28T05:55:07.448Z,45.10
2022-07-28T05:57:34.263Z,45.20
2022-07-28T06:00:01.045Z,45.10
2022-07-28T06:02:28.137Z,45.20
2022-07-28T06:04:55.969Z,45.10
2022-07-28T06:07:22.722Z,45.10
2022-07-28T06:10:10.352Z,45.10
2022-07-28T06:12:41.059Z,45.10
2022-07-28T06:15:08.646Z,45.10
2022-07-28T06:17:35.479Z,44.90
2022-07-28T06:20:02.174Z,45.10
2022-07-28T06:22:28.884Z,45.00
2022-07-28T06:24:55.676Z,44.90
2022-07-28T06:27:22.396Z,44.90
2022-07-28T06:29:49.242Z,44.90
2022-07-28T06:32:17.198Z,44.80
2022-07-28T06:34:43.925Z,45.30
2022-07-28T06:37:10.634Z,44.40
2022-07-28T06:39:37.347Z,44.10
2022-07-28T06:42:04.126Z,43.80
2022-07-28T06:44:54.959Z,43.60
2022-07-28T06:47:17.850Z,43.30
2022-07-28T06:49:46.012Z,43.30
2022-07-28T06:52:12.999Z,43.30
2022-07-28T06:54:39.756Z,43.30
2022-07-28T06:57:15.428Z,43.30
2022-07-28T06:59:43.724Z,43.30
2022-07-28T07:02:10.461Z,44.30
2022-07-28T07:04:37.204Z,43.70
2022-07-28T07:07:04.114Z,43.90
2022-07-28T07:09:43.703Z,43.90
2022-07-28T07:12:10.388Z,43.90
2022-07-28T07:14:37.104Z,44.10
2022-07-28T07:17:03.813Z,44.00
2022-07-28T07:19:30.512Z,44.10
2022-07-28T07:21:57.229Z,44.20
2022-07-28T07:24:24.047Z,44.10
2022-07-28T07:26:50.784Z,44.30
2022-07-28T07:29:17.545Z,44.20
2022-07-28T07:31:44.368Z,44.20
2022-07-28T07:34:11.295Z,43.90
2022-07-28T07:36:38.245Z,43.40
2022-07-28T07:39:04.954Z,43.50
2022-07-28T07:41:31.625Z,43.10
2022-07-28T07:43:58.295Z,43.10
2022-07-28T07:46:25.347Z,43.20
2022-07-28T07:48:52.150Z,43.30
2022-07-28T07:51:18.884Z,43.40
2022-07-28T07:53:45.617Z,43.40
2022-07-28T07:56:14.404Z,43.40
2022-07-28T07:58:41.116Z,43.40
2022-07-28T08:01:07.845Z,43.40
2022-07-28T08:03:38.184Z,43.70
2022-07-28T08:06:06.052Z,43.70
2022-07-28T08:08:38.560Z,43.90
2022-07-28T08:11:08.418Z,43.80
2022-07-28T08:13:35.513Z,43.90
2022-07-28T08:16:03.330Z,43.90
2022-07-28T08:18:30.110Z,43.90
2022-07-28T08:20:56.859Z,44.00
2022-07-28T08:23:26.270Z,43.90
2022-07-28T08:25:53.613Z,44.00
2022-07-28T08:28:20.327Z,43.80
2022-07-28T08:30:47.018Z,43.50
2022-07-28T08:33:13.714Z,43.30
2022-07-28T08:35:41.787Z,43.50
2022-07-28T08:38:08.595Z,43.00
2022-07-28T08:40:35.403Z,43.00
2022-07-28T08:43:14.344Z,43.10
2022-07-28T08:45:42.293Z,43.30
2022-07-28T08:48:10.053Z,43.30
2022-07-28T08:50:37.782Z,43.50
2022-07-28T08:53:04.486Z,43.50
2022-07-28T08:55:32.349Z,44.30
2022-07-28T08:58:00.207Z,43.80
2022-07-28T09:00:27.160Z,43.70
2022-07-28T09:02:53.899Z,43.80
2022-07-28T09:05:21.434Z,43.90
2022-07-28T09:07:54.086Z,44.00
2022-07-28T09:10:22.014Z,44.00
2022-07-28T09:12:48.817Z,44.10
2022-07-28T09:15:15.957Z,44.80
2022-07-28T09:17:42.676Z,44.20
2022-07-28T09:20:11.221Z,44.20
2022-07-28T09:22:53.974Z,44.00
2022-07-28T09:25:20.707Z,43.70
2022-07-28T09:27:47.395Z,43.40
2022-07-28T09:30:14.111Z,43.20
2022-07-28T09:32:40.835Z,43.40
2022-07-28T09:35:20.033Z,43.70
2022-07-28T09:37:46.757Z,43.70
2022-07-28T09:40:13.717Z,43.70
2022-07-28T09:42:47.122Z,43.70
2022-07-28T09:45:23.001Z,44.00
2022-07-28T09:47:56.654Z,44.10
2022-07-28T09:50:27.752Z,44.20
2022-07-28T09:52:54.458Z,44.20
2022-07-28T09:55:21.634Z,44.40
2022-07-28T09:57:48.341Z,44.50
2022-07-28T10:00:24.618Z,44.50
2022-07-28T10:02:54.529Z,44.60
2022-07-28T10:05:21.316Z,44.50
2022-07-28T10:07:54.264Z,44.40
2022-07-28T10:10:20.988Z,44.00
2022-07-28T10:12:48.639Z,43.80
2022-07-28T10:15:35.003Z,43.40
2022-07-28T10:18:01.945Z,43.30
2022-07-28T10:20:28.862Z,43.60
2022-07-28T10:22:57.615Z,43.80
2022-07-28T10:25:24.352Z,43.80
2022-07-28T10:27:51.016Z,43.80
2022-07-28T10:30:17.800Z,43.90
2022-07-28T10:32:44.835Z,44.20
2022-07-28T10:35:15.465Z,45.00
2022-07-28T10:37:58.151Z,44.40
2022-07-28T10:40:46.133Z,44.60
2022-07-28T10:43:13.513Z,45.30
2022-07-28T10:46:15.875Z,44.80
2022-07-28T10:48:27.682Z,44.70
2022-07-28T10:50:54.450Z,44.40
2022-07-28T10:53:33.561Z,43.90
2022-07-28T11:09:57.404Z,44.10
2022-07-28T11:12:43.198Z,44.30
2022-07-28T11:15:26.456Z,44.50
2022-07-28T11:17:58.021Z,44.60
2022-07-28T11:20:44.910Z,44.80
2022-07-28T11:23:30.608Z,44.80
2022-07-28T11:26:16.253Z,44.90
2022-07-28T11:29:03.379Z,45.10
2022-07-28T11:31:43.612Z,44.70
2022-07-28T11:34:17.901Z,44.50
2022-07-28T11:37:01.444Z,44.00
2022-07-28T11:39:29.412Z,44.00
2022-07-28T11:41:56.879Z,44.00
2022-07-28T11:51:21.673Z,44.40
2022-07-28T11:53:52.499Z,44.70
2022-07-28T11:56:22.933Z,44.80
2022-07-28T11:58:56.169Z,45.00
2022-07-28T12:01:22.821Z,45.00
2022-07-28T12:03:55.069Z,45.10
2022-07-28T12:06:33.657Z,45.20
2022-07-28T12:09:06.274Z,45.00
2022-07-28T12:11:33.690Z,44.60
2022-07-28T12:14:00.447Z,44.40
2022-07-28T12:16:27.433Z,44.10
2022-07-28T12:18:54.938Z,44.10
2022-07-28T12:21:46.280Z,44.30
2022-07-28T12:24:16.238Z,44.40
2022-07-28T12:26:48.932Z,44.70
2022-07-28T12:29:16.580Z,44.80
2022-07-28T12:31:56.373Z,44.90
2022-07-28T12:34:24.333Z,45.10
2022-07-28T12:36:57.128Z,45.10
2022-07-28T12:39:25.767Z,45.30
2022-07-28T12:42:03.611Z,45.30
2022-07-28T12:44:37.072Z,45.30
2022-07-28T12:47:04.321Z,45.10
2022-07-28T12:49:31.017Z,44.80
2022-07-28T12:51:59.304Z,44.40
2022-07-28T12:54:36.354Z,44.10
2022-07-28T12:57:03.320Z,44.10
2022-07-28T12:59:33.894Z,44.40
2022-07-28T13:02:00.907Z,44.60
2022-07-28T13:04:46.526Z,44.80
2022-07-28T13:07:14.628Z,45.10
2022-07-28T13:09:49.049Z,45.10
2022-07-28T13:12:22.127Z,45.20
2022-07-28T13:14:51.987Z,45.30
2022-07-28T13:17:19.304Z,45.40
2022-07-28T13:19:46.496Z,45.40
2022-07-28T13:22:13.213Z,45.60
2022-07-28T13:24:39.923Z,45.40
2022-07-28T13:27:07.237Z,45.20
2022-07-28T13:29:34.840Z,45.60
2022-07-28T13:32:04.923Z,44.60
2022-07-28T13:34:31.802Z,44.20
2022-07-28T13:37:05.968Z,44.30
2022-07-28T13:39:32.655Z,44.60
2022-07-28T13:41:59.582Z,44.80
2022-07-28T13:44:32.189Z,45.00
2022-07-28T13:46:59.613Z,45.20
2022-07-28T13:49:27.519Z,45.20
2022-07-28T13:51:54.789Z,45.40
2022-07-28T13:54:21.613Z,45.40
2022-07-28T13:56:48.361Z,45.50
2022-07-28T13:59:15.095Z,45.70
2022-07-28T14:01:42.855Z,45.70
2022-07-28T14:04:15.001Z,45.70
2022-07-28T14:06:45.210Z,45.50
2022-07-28T14:09:17.975Z,45.30
2022-07-28T14:11:49.460Z,44.80
2022-07-28T14:14:25.519Z,44.60
2022-07-28T14:16:54.329Z,44.60
2022-07-28T14:19:23.098Z,44.70
2022-07-28T14:22:13.085Z,44.90
2022-07-28T14:24:43.769Z,45.00
2022-07-28T14:27:13.737Z,45.30
2022-07-28T14:29:41.235Z,45.70
2022-07-28T14:32:07.994Z,45.80
2022-07-28T14:34:35.115Z,46.40
2022-07-28T14:37:03.546Z,45.90
2022-07-28T14:39:35.225Z,46.00
2022-07-28T14:42:02.033Z,46.10
2022-07-28T14:44:28.804Z,45.90
2022-07-28T14:46:55.602Z,45.70
2022-07-28T14:49:22.430Z,45.40
2022-07-28T14:51:50.441Z,45.20
2022-07-28T14:54:17.772Z,45.10
2022-07-28T14:56:44.810Z,45.10
2022-07-28T14:59:11.542Z,45.20
2022-07-28T15:01:38.318Z,45.90
2022-07-28T15:04:05.152Z,45.50
2022-07-28T15:06:32.136Z,45.60
2022-07-28T15:08:58.926Z,45.90
2022-07-28T15:11:25.890Z,45.90
2022-07-28T15:13:52.657Z,46.20
2022-07-28T15:16:19.394Z,46.20
2022-07-28T15:18:48.846Z,46.20
2022-07-28T15:21:16.316Z,46.20
2022-07-28T15:23:43.269Z,46.00
2022-07-28T15:26:10.111Z,45.80
2022-07-28T15:28:36.794Z,45.50
2022-07-28T15:31:03.646Z,45.20
2022-07-28T15:33:32.163Z,45.40
2022-07-28T15:35:59.882Z,45.30
2022-07-28T15:38:27.460Z,45.50
2022-07-28T15:40:54.340Z,45.70
2022-07-28T15:43:23.777Z,46.20
2022-07-28T15:45:51.029Z,46.20
2022-07-28T15:48:17.743Z,46.50
2022-07-28T15:50:48.564Z,46.60
2022-07-28T15:53:15.834Z,46.50
2022-07-28T15:55:46.286Z,46.50
2022-07-28T15:58:15.742Z,46.50
2022-07-28T16:00:44.618Z,46.50
2022-07-28T16:03:11.667Z,46.20
2022-07-28T16:05:38.475Z,45.90
2022-07-28T16:08:05.316Z,45.80
2022-07-28T16:10:32.025Z,45.60
2022-07-28T16:12:58.722Z,45.50
2022-07-28T16:15:27.005Z,45.80
2022-07-28T16:17:54.158Z,45.90
2022-07-28T16:20:20.847Z,46.20
2022-07-28T16:22:47.584Z,46.20
2022-07-28T16:25:17.639Z,46.30
2022-07-28T16:27:44.667Z,46.50
2022-07-28T16:30:11.840Z,46.50
2022-07-28T16:32:41.678Z,46.60
2022-07-28T16:35:11.539Z,46.70
2022-07-28T16:37:40.186Z,46.70
2022-07-28T16:40:07.661Z,46.50
2022-07-28T16:42:35.603Z,46.20
2022-07-28T16:45:02.710Z,45.90
2022-07-28T16:47:29.378Z,46.20
2022-07-28T16:49:56.096Z,45.60
2022-07-28T16:52:22.763Z,45.70
2022-07-28T16:54:49.557Z,45.80
2022-07-28T16:57:16.313Z,46.00
2022-07-28T16:59:48.423Z,46.20
2022-07-28T17:02:16.089Z,46.30
2022-07-28T17:04:42.820Z,46.50
2022-07-28T17:07:09.619Z,46.50
2022-07-28T17:09:36.315Z,46.70
2022-07-28T17:12:03.131Z,46.60
2022-07-28T17:14:29.950Z,46.80
2022-07-28T17:16:56.629Z,46.60
2022-07-28T17:19:23.336Z,47.20
2022-07-28T17:21:50.060Z,46.20
2022-07-28T17:24:17.233Z,45.90
2022-07-28T17:29:30.949Z,45.70
2022-07-28T17:31:58.620Z,45.70
2022-07-28T17:34:25.305Z,46.10
2022-07-28T17:36:52.662Z,46.10
2022-07-28T17:39:29.275Z,46.30
2022-07-28T17:41:56.003Z,46.40
2022-07-28T17:44:26.298Z,46.60
2022-07-28T17:46:53.104Z,46.70
2022-07-28T17:49:19.908Z,46.70
2022-07-28T17:51:47.668Z,46.90
2022-07-28T17:54:16.097Z,46.70
2022-07-28T17:56:43.285Z,46.60
2022-07-28T17:59:10.595Z,46.30
2022-07-28T18:01:39.953Z,46.00
2022-07-28T18:04:10.274Z,45.70
2022-07-28T18:06:37.307Z,45.60
2022-07-28T18:09:06.740Z,45.70
2022-07-28T18:11:34.637Z,45.70
2022-07-28T18:14:05.030Z,45.90
2022-07-28T18:16:35.153Z,44.60
2022-07-28T18:19:02.351Z,43.50
2022-07-28T18:21:29.065Z,43.70
2022-07-28T18:23:58.062Z,44.20
2022-07-28T18:26:24.799Z,43.80
2022-07-28T18:28:51.901Z,42.80
2022-07-28T18:31:18.625Z,42.40
2022-07-28T18:33:45.466Z,42.20
2022-07-28T18:36:12.123Z,42.50
2022-07-28T18:38:38.877Z,41.60
2022-07-28T18:41:05.535Z,42.00
2022-07-28T18:43:32.260Z,40.90
2022-07-28T18:45:59.114Z,40.20
2022-07-28T18:48:26.547Z,40.10
2022-07-28T18:50:53.244Z,39.40
2022-07-28T18:53:19.983Z,39.80
2022-07-28T18:55:47.132Z,40.20
2022-07-28T18:58:15.757Z,40.10
2022-07-28T19:00:42.414Z,39.70
2022-07-28T19:03:09.184Z,40.30
2022-07-28T19:05:37.099Z,41.00
2022-07-28T19:08:04.782Z,40.80
2022-07-28T19:10:32.341Z,41.00
2022-07-28T19:12:59.294Z,41.10
2022-07-28T19:15:26.090Z,41.30
2022-07-28T19:18:08.783Z,41.30
2022-07-28T19:20:39.093Z,41.40
2022-07-28T19:23:06.090Z,41.50
2022-07-28T19:25:32.936Z,42.20
2022-07-28T19:27:59.672Z,42.20
2022-07-28T19:30:26.620Z,42.00
2022-07-28T19:32:53.369Z,41.70
2022-07-28T19:35:20.145Z,40.60
2022-07-28T19:37:47.221Z,41.10
2022-07-28T19:40:13.911Z,41.40
2022-07-28T19:42:40.571Z,41.70
2022-07-28T19:45:07.749Z,42.10
2022-07-28T19:47:36.853Z,43.00
2022-07-28T19:50:05.165Z,42.50
2022-07-28T19:52:31.964Z,42.70
2022-07-28T19:54:58.823Z,42.90
2022-07-28T19:57:26.793Z,43.10
2022-07-28T19:59:56.477Z,43.20
2022-07-28T20:02:23.192Z,43.30
2022-07-28T20:04:49.922Z,43.40
2022-07-28T20:07:16.659Z,43.60
2022-07-28T20:09:43.379Z,43.50
2022-07-28T20:12:10.100Z,43.70
2022-07-28T20:14:37.366Z,43.60
2022-07-28T20:17:04.145Z,43.10
2022-07-28T20:19:30.922Z,42.70
2022-07-28T20:21:57.720Z,42.20
2022-07-28T20:24:24.462Z,42.00
2022-07-28T20:26:51.142Z,42.10
2022-07-28T20:29:18.161Z,42.30
2022-07-28T20:31:44.856Z,42.50
2022-07-28T20:34:13.128Z,42.50
2022-07-28T20:36:40.046Z,42.70
2022-07-28T20:39:27.537Z,42.80
2022-07-28T20:41:53.431Z,42.90
2022-07-28T20:44:35.762Z,43.10
2022-07-28T20:47:04.195Z,43.10
2022-07-28T20:49:30.995Z,43.30
2022-07-28T20:51:58.101Z,43.20
2022-07-28T20:54:27.873Z,43.30
2022-07-28T20:56:54.583Z,43.40
2022-07-28T20:59:27.144Z,44.10
2022-07-28T21:01:54.352Z,43.70
2022-07-28T21:04:24.530Z,43.80
2022-07-28T21:06:52.795Z,43.70
2022-07-28T21:09:22.136Z,43.30
2022-07-28T21:11:48.875Z,43.00
2022-07-28T21:14:15.916Z,42.60
2022-07-28T21:16:43.310Z,42.70
2022-07-28T21:19:09.996Z,42.90
2022-07-28T21:21:36.665Z,43.10
2022-07-28T21:24:03.370Z,43.10
2022-07-28T21:26:30.123Z,43.20
2022-07-28T21:29:12.557Z,43.30
2022-07-28T21:32:02.153Z,43.40
2022-07-28T21:34:26.685Z,43.70
2022-07-28T21:36:53.423Z,43.70
2022-07-28T21:39:20.113Z,43.80
2022-07-28T21:41:46.889Z,43.80
2022-07-28T21:44:13.665Z,43.70
2022-07-28T21:46:42.657Z,43.90
2022-07-28T21:49:09.524Z,44.00
2022-07-28T21:51:36.350Z,44.00
2022-07-28T21:54:04.314Z,44.20
2022-07-28T21:56:32.402Z,44.30
2022-07-28T21:58:59.094Z,44.00
2022-07-28T22:01:27.109Z,43.90
2022-07-28T22:03:54.016Z,43.60
2022-07-28T22:06:20.749Z,43.20
2022-07-28T22:08:50.352Z,43.00
2022-07-28T22:11:17.112Z,43.10
2022-07-28T22:13:43.801Z,43.30
2022-07-28T22:16:10.545Z,43.40
2022-07-28T22:18:37.249Z,43.70
2022-07-28T22:21:03.982Z,43.80
2022-07-28T22:23:30.629Z,43.70
2022-07-28T22:25:57.364Z,43.70
2022-07-28T22:28:30.572Z,43.80
2022-07-28T22:30:58.247Z,43.70
2022-07-28T22:33:24.964Z,44.00
2022-07-28T22:35:51.793Z,44.20
2022-07-28T22:38:18.477Z,44.20
2022-07-28T22:40:45.178Z,44.30
2022-07-28T22:43:11.869Z,44.30
2022-07-28T22:45:50.292Z,44.40
2022-07-28T22:48:17.849Z,44.40
2022-07-28T22:50:44.618Z,44.40
2022-07-28T22:53:11.322Z,45.20
2022-07-28T22:55:39.679Z,44.90
2022-07-28T22:58:06.368Z,45.00
2022-07-28T23:00:35.527Z,44.50
2022-07-28T23:03:03.972Z,44.20
2022-07-28T23:05:30.809Z,43.90
2022-07-28T23:07:58.964Z,43.60
2022-07-28T23:10:25.984Z,43.50
2022-07-28T23:12:53.585Z,43.60
2022-07-28T23:15:24.190Z,43.90
2022-07-28T23:18:06.575Z,43.80
2022-07-28T23:20:33.292Z,43.80
2022-07-28T23:22:59.961Z,43.80
2022-07-28T23:25:26.655Z,44.30
2022-07-28T23:27:53.388Z,43.80
2022-07-28T23:30:20.057Z,44.10
2022-07-28T23:32:49.006Z,44.20
2022-07-28T23:35:15.677Z,44.20
2022-07-28T23:37:42.361Z,44.40
2022-07-28T23:40:09.311Z,45.10
2022-07-28T23:42:35.977Z,44.50
2022-07-28T23:45:03.347Z,44.50
2022-07-28T23:47:30.037Z,44.50
2022-07-28T23:49:56.773Z,44.60
2022-07-28T23:52:23.521Z,45.30
2022-07-28T23:54:50.174Z,44.80
2022-07-28T23:57:16.926Z,44.90
2022-07-28T23:59:43.574Z,44.60
